sensor_id;sensor_type;location;lat;lon;timestamp;P1;durP1;ratioP1;P2;durP2;ratioP2
38111;SDS011;64011;56.312;44.048;2023-09-19T00:01:08;8.77;;;3.40;;
38111;SDS011;64011;56.312;44.048;2023-09-19T00:03:10;9.02;;;3.38;;
38111;SDS011;64011;56.312;44.048;2023-09-19T00:05:11;7.55;;;3.15;;
38111;SDS011;64011;56.312;44.048;2023-09-19T00:07:12;10.40;;;3.13;;
38111;SDS011;64011;56.312;44.048;2023-09-19T00:09:12;7.53;;;3.08;;
38111;SDS011;64011;56.312;44.048;2023-09-19T00:11:13;8.55;;;3.17;;
38111;SDS011;64011;56.312;44.048;2023-09-19T00:13:15;9.63;;;3.28;;
38111;SDS011;64011;56.312;44.048;2023-09-19T00:15:17;7.38;;;3.20;;
38111;SDS011;64011;56.312;44.048;2023-09-19T00:17:19;6.85;;;3.10;;
38111;SDS011;64011;56.312;44.048;2023-09-19T00:19:21;7.93;;;3.33;;
38111;SDS011;64011;56.312;44.048;2023-09-19T00:21:22;10.35;;;3.13;;
38111;SDS011;64011;56.312;44.048;2023-09-19T00:23:23;9.70;;;3.40;;
38111;SDS011;64011;56.312;44.048;2023-09-19T00:25:24;8.68;;;3.22;;
38111;SDS011;64011;56.312;44.048;2023-09-19T00:27:25;13.80;;;3.28;;
38111;SDS011;64011;56.312;44.048;2023-09-19T00:29:25;10.05;;;3.50;;
38111;SDS011;64011;56.312;44.048;2023-09-19T00:31:26;8.70;;;3.40;;
38111;SDS011;64011;56.312;44.048;2023-09-19T00:33:28;7.65;;;3.42;;
38111;SDS011;64011;56.312;44.048;2023-09-19T00:35:29;8.32;;;3.25;;
38111;SDS011;64011;56.312;44.048;2023-09-19T00:37:30;7.82;;;3.33;;
38111;SDS011;64011;56.312;44.048;2023-09-19T00:39:31;8.45;;;3.03;;
38111;SDS011;64011;56.312;44.048;2023-09-19T00:41:32;8.63;;;3.22;;
38111;SDS011;64011;56.312;44.048;2023-09-19T00:43:33;8.27;;;3.17;;
38111;SDS011;64011;56.312;44.048;2023-09-19T00:45:34;7.07;;;2.83;;
38111;SDS011;64011;56.312;44.048;2023-09-19T00:47:37;6.75;;;3.05;;
38111;SDS011;64011;56.312;44.048;2023-09-19T00:49:39;6.85;;;2.95;;
38111;SDS011;64011;56.312;44.048;2023-09-19T00:51:40;8.43;;;3.10;;
38111;SDS011;64011;56.312;44.048;2023-09-19T00:53:41;5.57;;;2.65;;
38111;SDS011;64011;56.312;44.048;2023-09-19T00:55:42;6.35;;;2.90;;
38111;SDS011;64011;56.312;44.048;2023-09-19T00:57:43;7.45;;;2.72;;
38111;SDS011;64011;56.312;44.048;2023-09-19T00:59:44;8.40;;;3.08;;
38111;SDS011;64011;56.312;44.048;2023-09-19T01:01:45;8.80;;;3.08;;
38111;SDS011;64011;56.312;44.048;2023-09-19T01:03:46;8.45;;;2.90;;
38111;SDS011;64011;56.312;44.048;2023-09-19T01:05:48;6.80;;;2.75;;
38111;SDS011;64011;56.312;44.048;2023-09-19T01:07:49;6.25;;;2.55;;
38111;SDS011;64011;56.312;44.048;2023-09-19T01:09:50;6.65;;;2.75;;
38111;SDS011;64011;56.312;44.048;2023-09-19T01:11:51;5.82;;;2.47;;
38111;SDS011;64011;56.312;44.048;2023-09-19T01:13:55;4.90;;;2.10;;
38111;SDS011;64011;56.312;44.048;2023-09-19T01:16:00;7.25;;;2.13;;
38111;SDS011;64011;56.312;44.048;2023-09-19T01:18:07;4.95;;;2.15;;
38111;SDS011;64011;56.312;44.048;2023-09-19T01:22:37;6.53;;;2.30;;
38111;SDS011;64011;56.312;44.048;2023-09-19T01:24:52;6.20;;;2.53;;
38111;SDS011;64011;56.312;44.048;2023-09-19T01:27:14;3.55;;;2.10;;
38111;SDS011;64011;56.312;44.048;2023-09-19T01:29:26;7.68;;;2.55;;
38111;SDS011;64011;56.312;44.048;2023-09-19T01:31:36;7.70;;;2.72;;
38111;SDS011;64011;56.312;44.048;2023-09-19T01:33:54;6.90;;;2.60;;
38111;SDS011;64011;56.312;44.048;2023-09-19T01:35:55;6.45;;;2.63;;
38111;SDS011;64011;56.312;44.048;2023-09-19T01:37:56;7.15;;;2.40;;
38111;SDS011;64011;56.312;44.048;2023-09-19T01:39:58;6.50;;;2.22;;
38111;SDS011;64011;56.312;44.048;2023-09-19T01:42:02;5.43;;;2.50;;
38111;SDS011;64011;56.312;44.048;2023-09-19T01:44:06;5.63;;;2.30;;
38111;SDS011;64011;56.312;44.048;2023-09-19T01:46:12;5.97;;;2.25;;
38111;SDS011;64011;56.312;44.048;2023-09-19T01:48:19;8.02;;;2.60;;
38111;SDS011;64011;56.312;44.048;2023-09-19T01:50:28;5.53;;;2.47;;
38111;SDS011;64011;56.312;44.048;2023-09-19T01:52:31;8.73;;;2.30;;
38111;SDS011;64011;56.312;44.048;2023-09-19T01:54:40;7.10;;;2.50;;
38111;SDS011;64011;56.312;44.048;2023-09-19T01:56:42;6.03;;;2.42;;
38111;SDS011;64011;56.312;44.048;2023-09-19T01:58:48;7.32;;;2.50;;
38111;SDS011;64011;56.312;44.048;2023-09-19T02:00:53;5.07;;;2.25;;
38111;SDS011;64011;56.312;44.048;2023-09-19T02:02:55;6.68;;;2.42;;
38111;SDS011;64011;56.312;44.048;2023-09-19T02:04:58;8.63;;;2.80;;
38111;SDS011;64011;56.312;44.048;2023-09-19T02:06:59;6.60;;;2.33;;
38111;SDS011;64011;56.312;44.048;2023-09-19T02:09:00;8.07;;;2.95;;
38111;SDS011;64011;56.312;44.048;2023-09-19T02:11:00;5.07;;;2.13;;
38111;SDS011;64011;56.312;44.048;2023-09-19T02:13:01;6.57;;;2.58;;
38111;SDS011;64011;56.312;44.048;2023-09-19T02:15:03;4.35;;;2.00;;
38111;SDS011;64011;56.312;44.048;2023-09-19T02:17:05;10.02;;;2.00;;
38111;SDS011;64011;56.312;44.048;2023-09-19T02:19:06;4.00;;;1.67;;
38111;SDS011;64011;56.312;44.048;2023-09-19T02:21:09;8.18;;;2.10;;
38111;SDS011;64011;56.312;44.048;2023-09-19T02:23:10;15.25;;;2.35;;
38111;SDS011;64011;56.312;44.048;2023-09-19T02:25:11;4.45;;;1.70;;
38111;SDS011;64011;56.312;44.048;2023-09-19T02:27:12;8.43;;;1.95;;
38111;SDS011;64011;56.312;44.048;2023-09-19T02:29:13;5.32;;;1.77;;
38111;SDS011;64011;56.312;44.048;2023-09-19T02:31:14;6.78;;;2.00;;
38111;SDS011;64011;56.312;44.048;2023-09-19T02:33:14;4.03;;;1.60;;
38111;SDS011;64011;56.312;44.048;2023-09-19T02:35:15;8.50;;;1.80;;
38111;SDS011;64011;56.312;44.048;2023-09-19T02:37:18;8.63;;;1.95;;
38111;SDS011;64011;56.312;44.048;2023-09-19T02:39:18;4.22;;;1.77;;
38111;SDS011;64011;56.312;44.048;2023-09-19T02:41:19;5.55;;;1.77;;
38111;SDS011;64011;56.312;44.048;2023-09-19T02:43:20;6.15;;;1.70;;
38111;SDS011;64011;56.312;44.048;2023-09-19T02:45:21;4.47;;;1.60;;
38111;SDS011;64011;56.312;44.048;2023-09-19T02:47:22;3.50;;;1.77;;
38111;SDS011;64011;56.312;44.048;2023-09-19T02:49:23;4.88;;;1.60;;
38111;SDS011;64011;56.312;44.048;2023-09-19T02:51:24;7.63;;;1.95;;
38111;SDS011;64011;56.312;44.048;2023-09-19T02:53:26;7.43;;;2.00;;
38111;SDS011;64011;56.312;44.048;2023-09-19T02:55:27;5.70;;;1.75;;
38111;SDS011;64011;56.312;44.048;2023-09-19T02:57:28;5.70;;;2.00;;
38111;SDS011;64011;56.312;44.048;2023-09-19T02:59:31;4.97;;;1.80;;
38111;SDS011;64011;56.312;44.048;2023-09-19T03:01:32;9.43;;;1.90;;
38111;SDS011;64011;56.312;44.048;2023-09-19T03:03:33;7.85;;;1.80;;
38111;SDS011;64011;56.312;44.048;2023-09-19T03:05:34;6.78;;;1.92;;
38111;SDS011;64011;56.312;44.048;2023-09-19T03:07:35;6.55;;;1.75;;
38111;SDS011;64011;56.312;44.048;2023-09-19T03:09:37;8.48;;;1.80;;
38111;SDS011;64011;56.312;44.048;2023-09-19T03:11:38;6.53;;;2.03;;
38111;SDS011;64011;56.312;44.048;2023-09-19T03:13:39;5.50;;;1.95;;
38111;SDS011;64011;56.312;44.048;2023-09-19T03:15:40;13.80;;;2.25;;
38111;SDS011;64011;56.312;44.048;2023-09-19T03:17:42;6.15;;;2.55;;
38111;SDS011;64011;56.312;44.048;2023-09-19T03:19:43;7.93;;;2.80;;
38111;SDS011;64011;56.312;44.048;2023-09-19T03:21:44;9.32;;;2.17;;
38111;SDS011;64011;56.312;44.048;2023-09-19T03:23:45;10.65;;;3.03;;
38111;SDS011;64011;56.312;44.048;2023-09-19T03:25:47;8.20;;;2.55;;
38111;SDS011;64011;56.312;44.048;2023-09-19T03:27:48;10.77;;;3.92;;
38111;SDS011;64011;56.312;44.048;2023-09-19T03:29:49;9.73;;;3.28;;
38111;SDS011;64011;56.312;44.048;2023-09-19T03:31:50;8.77;;;3.20;;
38111;SDS011;64011;56.312;44.048;2023-09-19T03:33:51;11.00;;;2.72;;
38111;SDS011;64011;56.312;44.048;2023-09-19T03:35:52;8.38;;;2.65;;
38111;SDS011;64011;56.312;44.048;2023-09-19T03:37:53;11.63;;;2.97;;
38111;SDS011;64011;56.312;44.048;2023-09-19T03:39:54;10.10;;;3.40;;
38111;SDS011;64011;56.312;44.048;2023-09-19T03:41:56;8.63;;;3.53;;
38111;SDS011;64011;56.312;44.048;2023-09-19T03:43:57;8.80;;;3.05;;
38111;SDS011;64011;56.312;44.048;2023-09-19T03:46:00;8.48;;;3.53;;
38111;SDS011;64011;56.312;44.048;2023-09-19T03:48:06;9.95;;;4.10;;
38111;SDS011;64011;56.312;44.048;2023-09-19T03:50:09;5.90;;;3.35;;
38111;SDS011;64011;56.312;44.048;2023-09-19T03:52:10;12.13;;;5.88;;
38111;SDS011;64011;56.312;44.048;2023-09-19T03:54:11;23.70;;;7.38;;
38111;SDS011;64011;56.312;44.048;2023-09-19T03:56:11;114.95;;;11.48;;
38111;SDS011;64011;56.312;44.048;2023-09-19T03:58:14;14.35;;;6.30;;
38111;SDS011;64011;56.312;44.048;2023-09-19T04:00:15;12.85;;;4.93;;
38111;SDS011;64011;56.312;44.048;2023-09-19T04:02:16;11.27;;;5.15;;
38111;SDS011;64011;56.312;44.048;2023-09-19T04:04:16;13.25;;;5.13;;
38111;SDS011;64011;56.312;44.048;2023-09-19T04:06:17;12.35;;;5.00;;
38111;SDS011;64011;56.312;44.048;2023-09-19T04:08:18;17.48;;;5.40;;
38111;SDS011;64011;56.312;44.048;2023-09-19T04:10:19;18.88;;;5.47;;
38111;SDS011;64011;56.312;44.048;2023-09-19T04:12:20;16.20;;;5.05;;
38111;SDS011;64011;56.312;44.048;2023-09-19T04:14:22;17.08;;;4.65;;
38111;SDS011;64011;56.312;44.048;2023-09-19T04:16:23;14.32;;;4.22;;
38111;SDS011;64011;56.312;44.048;2023-09-19T04:18:24;12.52;;;4.65;;
38111;SDS011;64011;56.312;44.048;2023-09-19T04:20:25;15.43;;;3.80;;
38111;SDS011;64011;56.312;44.048;2023-09-19T04:22:26;11.60;;;4.57;;
38111;SDS011;64011;56.312;44.048;2023-09-19T04:24:26;16.20;;;4.43;;
38111;SDS011;64011;56.312;44.048;2023-09-19T04:26:27;8.93;;;2.92;;
38111;SDS011;64011;56.312;44.048;2023-09-19T04:28:28;10.90;;;3.28;;
38111;SDS011;64011;56.312;44.048;2023-09-19T04:30:30;7.22;;;3.35;;
38111;SDS011;64011;56.312;44.048;2023-09-19T04:32:31;14.98;;;3.97;;
38111;SDS011;64011;56.312;44.048;2023-09-19T04:34:32;11.63;;;3.97;;
38111;SDS011;64011;56.312;44.048;2023-09-19T04:36:34;12.02;;;3.20;;
38111;SDS011;64011;56.312;44.048;2023-09-19T04:38:34;13.05;;;3.10;;
38111;SDS011;64011;56.312;44.048;2023-09-19T04:40:36;13.90;;;3.60;;
38111;SDS011;64011;56.312;44.048;2023-09-19T04:42:37;11.23;;;3.17;;
38111;SDS011;64011;56.312;44.048;2023-09-19T04:44:38;22.33;;;3.75;;
38111;SDS011;64011;56.312;44.048;2023-09-19T04:46:40;18.70;;;3.25;;
38111;SDS011;64011;56.312;44.048;2023-09-19T04:48:41;14.48;;;3.22;;
38111;SDS011;64011;56.312;44.048;2023-09-19T04:50:42;17.65;;;2.80;;
38111;SDS011;64011;56.312;44.048;2023-09-19T04:52:43;11.27;;;2.55;;
38111;SDS011;64011;56.312;44.048;2023-09-19T04:54:44;13.43;;;2.20;;
38111;SDS011;64011;56.312;44.048;2023-09-19T04:56:45;9.15;;;2.30;;
38111;SDS011;64011;56.312;44.048;2023-09-19T04:58:46;6.65;;;1.98;;
38111;SDS011;64011;56.312;44.048;2023-09-19T05:00:47;10.88;;;2.38;;
38111;SDS011;64011;56.312;44.048;2023-09-19T05:02:50;16.40;;;2.45;;
38111;SDS011;64011;56.312;44.048;2023-09-19T05:04:51;5.65;;;1.60;;
38111;SDS011;64011;56.312;44.048;2023-09-19T05:06:52;6.88;;;1.85;;
38111;SDS011;64011;56.312;44.048;2023-09-19T05:08:53;23.20;;;2.60;;
38111;SDS011;64011;56.312;44.048;2023-09-19T05:10:54;6.95;;;1.85;;
38111;SDS011;64011;56.312;44.048;2023-09-19T05:12:54;15.80;;;2.53;;
38111;SDS011;64011;56.312;44.048;2023-09-19T05:14:55;10.07;;;2.30;;
38111;SDS011;64011;56.312;44.048;2023-09-19T05:16:56;8.63;;;2.00;;
38111;SDS011;64011;56.312;44.048;2023-09-19T05:18:58;13.90;;;2.90;;
38111;SDS011;64011;56.312;44.048;2023-09-19T05:21:01;6.28;;;1.90;;
38111;SDS011;64011;56.312;44.048;2023-09-19T05:23:03;10.10;;;2.25;;
38111;SDS011;64011;56.312;44.048;2023-09-19T05:25:05;8.98;;;2.03;;
38111;SDS011;64011;56.312;44.048;2023-09-19T05:27:06;10.05;;;1.95;;
38111;SDS011;64011;56.312;44.048;2023-09-19T05:29:07;5.32;;;1.65;;
38111;SDS011;64011;56.312;44.048;2023-09-19T05:31:08;8.48;;;1.88;;
38111;SDS011;64011;56.312;44.048;2023-09-19T05:33:09;7.22;;;1.95;;
38111;SDS011;64011;56.312;44.048;2023-09-19T05:35:12;13.00;;;2.40;;
38111;SDS011;64011;56.312;44.048;2023-09-19T05:37:13;35.90;;;3.63;;
38111;SDS011;64011;56.312;44.048;2023-09-19T05:39:14;24.88;;;2.53;;
38111;SDS011;64011;56.312;44.048;2023-09-19T05:41:15;10.32;;;2.10;;
38111;SDS011;64011;56.312;44.048;2023-09-19T05:43:16;18.05;;;2.40;;
38111;SDS011;64011;56.312;44.048;2023-09-19T05:45:17;8.77;;;2.10;;
38111;SDS011;64011;56.312;44.048;2023-09-19T05:47:18;11.65;;;2.33;;
38111;SDS011;64011;56.312;44.048;2023-09-19T05:49:19;9.88;;;2.20;;
38111;SDS011;64011;56.312;44.048;2023-09-19T05:51:21;6.65;;;2.13;;
38111;SDS011;64011;56.312;44.048;2023-09-19T05:53:22;7.55;;;1.90;;
38111;SDS011;64011;56.312;44.048;2023-09-19T05:55:23;6.38;;;1.92;;
38111;SDS011;64011;56.312;44.048;2023-09-19T05:57:24;10.57;;;2.60;;
38111;SDS011;64011;56.312;44.048;2023-09-19T05:59:24;7.75;;;1.92;;
38111;SDS011;64011;56.312;44.048;2023-09-19T06:01:25;5.40;;;1.80;;
38111;SDS011;64011;56.312;44.048;2023-09-19T06:03:26;12.15;;;2.40;;
38111;SDS011;64011;56.312;44.048;2023-09-19T06:05:27;10.65;;;1.90;;
38111;SDS011;64011;56.312;44.048;2023-09-19T06:07:30;4.05;;;1.77;;
38111;SDS011;64011;56.312;44.048;2023-09-19T06:09:31;6.63;;;1.90;;
38111;SDS011;64011;56.312;44.048;2023-09-19T06:11:32;11.13;;;2.30;;
38111;SDS011;64011;56.312;44.048;2023-09-19T06:13:33;8.55;;;1.60;;
38111;SDS011;64011;56.312;44.048;2023-09-19T06:15:34;5.45;;;1.60;;
38111;SDS011;64011;56.312;44.048;2023-09-19T06:17:34;8.15;;;1.65;;
38111;SDS011;64011;56.312;44.048;2023-09-19T06:19:35;4.72;;;1.35;;
38111;SDS011;64011;56.312;44.048;2023-09-19T06:21:36;4.55;;;1.35;;
38111;SDS011;64011;56.312;44.048;2023-09-19T06:23:38;6.18;;;1.50;;
38111;SDS011;64011;56.312;44.048;2023-09-19T06:25:39;5.38;;;1.40;;
38111;SDS011;64011;56.312;44.048;2023-09-19T06:27:40;4.10;;;1.45;;
38111;SDS011;64011;56.312;44.048;2023-09-19T06:29:41;11.73;;;6.22;;
38111;SDS011;64011;56.312;44.048;2023-09-19T06:31:42;5.43;;;1.80;;
38111;SDS011;64011;56.312;44.048;2023-09-19T06:33:43;3.80;;;1.67;;
38111;SDS011;64011;56.312;44.048;2023-09-19T06:35:44;5.57;;;1.60;;
38111;SDS011;64011;56.312;44.048;2023-09-19T06:37:45;2.95;;;1.17;;
38111;SDS011;64011;56.312;44.048;2023-09-19T06:39:47;4.63;;;1.30;;
38111;SDS011;64011;56.312;44.048;2023-09-19T06:41:49;7.82;;;1.20;;
38111;SDS011;64011;56.312;44.048;2023-09-19T06:43:50;4.60;;;1.25;;
38111;SDS011;64011;56.312;44.048;2023-09-19T06:45:53;3.50;;;1.08;;
38111;SDS011;64011;56.312;44.048;2023-09-19T06:47:53;4.97;;;1.35;;
38111;SDS011;64011;56.312;44.048;2023-09-19T06:49:54;5.57;;;1.27;;
38111;SDS011;64011;56.312;44.048;2023-09-19T06:51:55;3.90;;;1.10;;
38111;SDS011;64011;56.312;44.048;2023-09-19T06:53:56;5.13;;;1.10;;
38111;SDS011;64011;56.312;44.048;2023-09-19T06:55:58;3.00;;;1.00;;
38111;SDS011;64011;56.312;44.048;2023-09-19T06:57:59;3.20;;;1.20;;
38111;SDS011;64011;56.312;44.048;2023-09-19T07:00:00;2.85;;;1.10;;
38111;SDS011;64011;56.312;44.048;2023-09-19T07:02:03;4.03;;;1.20;;
38111;SDS011;64011;56.312;44.048;2023-09-19T07:04:04;1.45;;;0.90;;
38111;SDS011;64011;56.312;44.048;2023-09-19T07:06:05;6.63;;;1.30;;
38111;SDS011;64011;56.312;44.048;2023-09-19T07:08:06;9.95;;;1.42;;
38111;SDS011;64011;56.312;44.048;2023-09-19T07:10:09;6.75;;;1.40;;
38111;SDS011;64011;56.312;44.048;2023-09-19T07:12:12;8.98;;;1.48;;
38111;SDS011;64011;56.312;44.048;2023-09-19T07:14:12;4.18;;;1.45;;
38111;SDS011;64011;56.312;44.048;2023-09-19T07:16:13;4.80;;;1.65;;
38111;SDS011;64011;56.312;44.048;2023-09-19T07:18:14;2.50;;;0.85;;
38111;SDS011;64011;56.312;44.048;2023-09-19T07:20:16;6.57;;;1.00;;
38111;SDS011;64011;56.312;44.048;2023-09-19T07:22:17;3.53;;;0.90;;
38111;SDS011;64011;56.312;44.048;2023-09-19T07:24:18;5.32;;;1.17;;
38111;SDS011;64011;56.312;44.048;2023-09-19T07:26:18;3.55;;;1.30;;
38111;SDS011;64011;56.312;44.048;2023-09-19T07:28:21;4.63;;;1.17;;
38111;SDS011;64011;56.312;44.048;2023-09-19T07:30:22;3.05;;;1.10;;
38111;SDS011;64011;56.312;44.048;2023-09-19T07:32:23;2.95;;;0.88;;
38111;SDS011;64011;56.312;44.048;2023-09-19T07:34:24;3.05;;;1.17;;
38111;SDS011;64011;56.312;44.048;2023-09-19T07:36:24;2.15;;;0.90;;
38111;SDS011;64011;56.312;44.048;2023-09-19T07:38:25;3.45;;;0.70;;
38111;SDS011;64011;56.312;44.048;2023-09-19T07:40:27;4.78;;;0.90;;
38111;SDS011;64011;56.312;44.048;2023-09-19T07:42:28;3.72;;;0.88;;
38111;SDS011;64011;56.312;44.048;2023-09-19T07:44:30;1.98;;;0.90;;
38111;SDS011;64011;56.312;44.048;2023-09-19T07:46:31;5.70;;;1.10;;
38111;SDS011;64011;56.312;44.048;2023-09-19T07:48:32;15.95;;;5.53;;
38111;SDS011;64011;56.312;44.048;2023-09-19T07:50:33;2.13;;;1.00;;
38111;SDS011;64011;56.312;44.048;2023-09-19T07:52:34;4.03;;;0.95;;
38111;SDS011;64011;56.312;44.048;2023-09-19T07:54:35;2.67;;;0.90;;
38111;SDS011;64011;56.312;44.048;2023-09-19T07:56:36;3.13;;;1.00;;
38111;SDS011;64011;56.312;44.048;2023-09-19T07:58:39;1.40;;;0.80;;
38111;SDS011;64011;56.312;44.048;2023-09-19T08:00:41;3.67;;;0.90;;
38111;SDS011;64011;56.312;44.048;2023-09-19T08:02:42;4.15;;;0.90;;
38111;SDS011;64011;56.312;44.048;2023-09-19T08:04:44;7.05;;;0.98;;
38111;SDS011;64011;56.312;44.048;2023-09-19T08:06:45;3.88;;;1.00;;
38111;SDS011;64011;56.312;44.048;2023-09-19T08:08:46;2.47;;;1.17;;
38111;SDS011;64011;56.312;44.048;2023-09-19T08:10:52;5.72;;;1.08;;
38111;SDS011;64011;56.312;44.048;2023-09-19T08:12:53;4.60;;;1.10;;
38111;SDS011;64011;56.312;44.048;2023-09-19T08:14:54;4.00;;;0.90;;
38111;SDS011;64011;56.312;44.048;2023-09-19T08:16:57;6.05;;;1.67;;
38111;SDS011;64011;56.312;44.048;2023-09-19T08:18:58;6.63;;;1.30;;
38111;SDS011;64011;56.312;44.048;2023-09-19T08:21:00;13.00;;;1.40;;
38111;SDS011;64011;56.312;44.048;2023-09-19T08:23:01;5.00;;;1.20;;
38111;SDS011;64011;56.312;44.048;2023-09-19T08:25:02;9.68;;;1.30;;
38111;SDS011;64011;56.312;44.048;2023-09-19T08:27:04;3.90;;;1.17;;
38111;SDS011;64011;56.312;44.048;2023-09-19T08:29:05;5.00;;;1.38;;
38111;SDS011;64011;56.312;44.048;2023-09-19T08:31:06;2.17;;;1.00;;
38111;SDS011;64011;56.312;44.048;2023-09-19T08:33:09;6.85;;;1.20;;
38111;SDS011;64011;56.312;44.048;2023-09-19T08:35:10;2.53;;;1.00;;
38111;SDS011;64011;56.312;44.048;2023-09-19T08:37:11;6.35;;;1.23;;
38111;SDS011;64011;56.312;44.048;2023-09-19T08:39:12;3.58;;;1.20;;
38111;SDS011;64011;56.312;44.048;2023-09-19T08:41:13;5.28;;;1.20;;
38111;SDS011;64011;56.312;44.048;2023-09-19T08:43:14;4.53;;;1.15;;
38111;SDS011;64011;56.312;44.048;2023-09-19T08:45:15;7.47;;;1.40;;
38111;SDS011;64011;56.312;44.048;2023-09-19T08:47:16;5.35;;;1.40;;
38111;SDS011;64011;56.312;44.048;2023-09-19T08:49:24;5.28;;;1.23;;
38111;SDS011;64011;56.312;44.048;2023-09-19T08:51:30;5.20;;;1.33;;
38111;SDS011;64011;56.312;44.048;2023-09-19T08:53:36;7.70;;;1.30;;
38111;SDS011;64011;56.312;44.048;2023-09-19T08:55:42;5.32;;;1.23;;
38111;SDS011;64011;56.312;44.048;2023-09-19T08:57:44;9.00;;;1.48;;
38111;SDS011;64011;56.312;44.048;2023-09-19T08:59:45;14.18;;;2.20;;
38111;SDS011;64011;56.312;44.048;2023-09-19T09:01:48;6.80;;;1.83;;
38111;SDS011;64011;56.312;44.048;2023-09-19T09:03:49;3.67;;;1.38;;
38111;SDS011;64011;56.312;44.048;2023-09-19T09:05:53;6.13;;;1.40;;
38111;SDS011;64011;56.312;44.048;2023-09-19T09:07:54;3.85;;;1.58;;
38111;SDS011;64011;56.312;44.048;2023-09-19T09:09:56;5.30;;;1.63;;
38111;SDS011;64011;56.312;44.048;2023-09-19T09:11:58;5.10;;;1.52;;
38111;SDS011;64011;56.312;44.048;2023-09-19T09:13:59;4.57;;;1.50;;
38111;SDS011;64011;56.312;44.048;2023-09-19T09:16:00;7.60;;;1.85;;
38111;SDS011;64011;56.312;44.048;2023-09-19T09:18:01;7.80;;;2.50;;
38111;SDS011;64011;56.312;44.048;2023-09-19T09:20:04;4.80;;;2.05;;
38111;SDS011;64011;56.312;44.048;2023-09-19T09:22:08;7.82;;;1.67;;
38111;SDS011;64011;56.312;44.048;2023-09-19T09:24:27;12.00;;;3.25;;
38111;SDS011;64011;56.312;44.048;2023-09-19T09:26:40;11.60;;;2.47;;
38111;SDS011;64011;56.312;44.048;2023-09-19T09:28:44;5.55;;;2.10;;
38111;SDS011;64011;56.312;44.048;2023-09-19T09:30:45;7.88;;;2.65;;
38111;SDS011;64011;56.312;44.048;2023-09-19T09:32:46;7.88;;;2.35;;
38111;SDS011;64011;56.312;44.048;2023-09-19T09:34:49;9.30;;;2.80;;
38111;SDS011;64011;56.312;44.048;2023-09-19T09:36:50;7.43;;;2.30;;
38111;SDS011;64011;56.312;44.048;2023-09-19T09:38:53;5.47;;;1.35;;
38111;SDS011;64011;56.312;44.048;2023-09-19T09:40:54;5.53;;;1.58;;
38111;SDS011;64011;56.312;44.048;2023-09-19T09:42:55;3.28;;;1.23;;
38111;SDS011;64011;56.312;44.048;2023-09-19T09:45:02;2.53;;;1.27;;
38111;SDS011;64011;56.312;44.048;2023-09-19T09:47:12;3.42;;;1.20;;
38111;SDS011;64011;56.312;44.048;2023-09-19T09:49:13;3.95;;;1.48;;
38111;SDS011;64011;56.312;44.048;2023-09-19T09:51:15;5.13;;;1.33;;
38111;SDS011;64011;56.312;44.048;2023-09-19T09:53:22;5.82;;;1.70;;
38111;SDS011;64011;56.312;44.048;2023-09-19T09:55:25;4.15;;;1.40;;
38111;SDS011;64011;56.312;44.048;2023-09-19T09:57:26;7.60;;;1.58;;
38111;SDS011;64011;56.312;44.048;2023-09-19T09:59:46;5.40;;;1.50;;
38111;SDS011;64011;56.312;44.048;2023-09-19T10:01:48;7.05;;;1.55;;
38111;SDS011;64011;56.312;44.048;2023-09-19T10:03:49;5.15;;;1.40;;
38111;SDS011;64011;56.312;44.048;2023-09-19T10:05:53;5.90;;;1.40;;
38111;SDS011;64011;56.312;44.048;2023-09-19T10:07:54;5.88;;;1.42;;
38111;SDS011;64011;56.312;44.048;2023-09-19T10:09:55;4.60;;;1.35;;
38111;SDS011;64011;56.312;44.048;2023-09-19T10:12:04;4.25;;;1.70;;
38111;SDS011;64011;56.312;44.048;2023-09-19T10:14:06;6.38;;;1.42;;
38111;SDS011;64011;56.312;44.048;2023-09-19T10:16:08;8.57;;;1.88;;
38111;SDS011;64011;56.312;44.048;2023-09-19T10:18:10;4.80;;;1.75;;
38111;SDS011;64011;56.312;44.048;2023-09-19T10:20:12;2.95;;;1.50;;
38111;SDS011;64011;56.312;44.048;2023-09-19T10:22:14;6.70;;;1.60;;
38111;SDS011;64011;56.312;44.048;2023-09-19T10:24:15;7.25;;;1.50;;
38111;SDS011;64011;56.312;44.048;2023-09-19T10:26:16;7.82;;;1.60;;
38111;SDS011;64011;56.312;44.048;2023-09-19T10:28:19;9.10;;;1.77;;
38111;SDS011;64011;56.312;44.048;2023-09-19T10:30:21;7.53;;;1.58;;
38111;SDS011;64011;56.312;44.048;2023-09-19T10:32:23;7.38;;;1.75;;
38111;SDS011;64011;56.312;44.048;2023-09-19T10:34:25;4.43;;;1.70;;
38111;SDS011;64011;56.312;44.048;2023-09-19T10:36:27;6.38;;;1.92;;
38111;SDS011;64011;56.312;44.048;2023-09-19T10:38:32;7.07;;;1.65;;
38111;SDS011;64011;56.312;44.048;2023-09-19T10:40:34;4.30;;;1.75;;
38111;SDS011;64011;56.312;44.048;2023-09-19T10:42:35;7.30;;;1.70;;
38111;SDS011;64011;56.312;44.048;2023-09-19T10:44:42;7.38;;;1.60;;
38111;SDS011;64011;56.312;44.048;2023-09-19T10:46:43;10.98;;;2.33;;
38111;SDS011;64011;56.312;44.048;2023-09-19T10:48:44;8.10;;;1.90;;
38111;SDS011;64011;56.312;44.048;2023-09-19T10:50:46;5.80;;;1.83;;
38111;SDS011;64011;56.312;44.048;2023-09-19T10:52:49;7.07;;;1.90;;
38111;SDS011;64011;56.312;44.048;2023-09-19T10:54:51;7.85;;;1.95;;
38111;SDS011;64011;56.312;44.048;2023-09-19T10:56:53;5.40;;;2.08;;
38111;SDS011;64011;56.312;44.048;2023-09-19T10:59:05;9.38;;;2.33;;
38111;SDS011;64011;56.312;44.048;2023-09-19T11:01:08;4.32;;;1.80;;
38111;SDS011;64011;56.312;44.048;2023-09-19T11:03:19;6.47;;;1.90;;
38111;SDS011;64011;56.312;44.048;2023-09-19T11:05:21;8.82;;;2.05;;
38111;SDS011;64011;56.312;44.048;2023-09-19T11:07:22;6.90;;;2.25;;
38111;SDS011;64011;56.312;44.048;2023-09-19T11:09:24;6.13;;;2.00;;
38111;SDS011;64011;56.312;44.048;2023-09-19T11:11:44;7.93;;;2.13;;
38111;SDS011;64011;56.312;44.048;2023-09-19T11:13:46;8.73;;;2.08;;
38111;SDS011;64011;56.312;44.048;2023-09-19T11:16:27;8.98;;;2.33;;
38111;SDS011;64011;56.312;44.048;2023-09-19T11:21:02;8.25;;;2.47;;
38111;SDS011;64011;56.312;44.048;2023-09-19T11:26:39;9.70;;;2.53;;
38111;SDS011;64011;56.312;44.048;2023-09-19T11:28:41;13.73;;;3.00;;
38111;SDS011;64011;56.312;44.048;2023-09-19T11:30:43;8.63;;;2.63;;
38111;SDS011;64011;56.312;44.048;2023-09-19T11:35:17;8.52;;;2.67;;
38111;SDS011;64011;56.312;44.048;2023-09-19T11:40:05;8.57;;;2.85;;
38111;SDS011;64011;56.312;44.048;2023-09-19T11:44:40;7.45;;;2.75;;
38111;SDS011;64011;56.312;44.048;2023-09-19T11:46:51;10.88;;;3.15;;
38111;SDS011;64011;56.312;44.048;2023-09-19T11:48:54;14.93;;;3.10;;
38111;SDS011;64011;56.312;44.048;2023-09-19T11:50:55;9.60;;;2.92;;
38111;SDS011;64011;56.312;44.048;2023-09-19T11:52:57;44.70;;;7.10;;
38111;SDS011;64011;56.312;44.048;2023-09-19T11:54:58;14.80;;;4.03;;
38111;SDS011;64011;56.312;44.048;2023-09-19T11:57:00;13.68;;;3.53;;
38111;SDS011;64011;56.312;44.048;2023-09-19T11:59:01;13.48;;;3.13;;
38111;SDS011;64011;56.312;44.048;2023-09-19T12:01:02;13.65;;;2.90;;
38111;SDS011;64011;56.312;44.048;2023-09-19T12:03:05;10.45;;;2.78;;
38111;SDS011;64011;56.312;44.048;2023-09-19T12:05:11;11.98;;;2.95;;
38111;SDS011;64011;56.312;44.048;2023-09-19T12:07:13;12.02;;;3.08;;
38111;SDS011;64011;56.312;44.048;2023-09-19T12:09:14;13.15;;;2.90;;
38111;SDS011;64011;56.312;44.048;2023-09-19T12:11:16;11.77;;;2.95;;
38111;SDS011;64011;56.312;44.048;2023-09-19T12:13:17;9.10;;;2.80;;
38111;SDS011;64011;56.312;44.048;2023-09-19T12:15:22;10.95;;;3.00;;
38111;SDS011;64011;56.312;44.048;2023-09-19T12:17:23;12.65;;;2.80;;
38111;SDS011;64011;56.312;44.048;2023-09-19T12:19:25;9.98;;;2.70;;